Time;durP1;ratioP1;P1;durP2;ratioP2;P2;SDS_P1;SDS_P2;PMS_P1;PMS_P2;Temp;Humidity;BMP_temperature;BMP_pressure;BME280_temperature;BME280_humidity;BME280_pressure;Samples;Min_cycle;Max_cycle;Signal;HPM_P1;HPM_P2
2021/01/26 00:02:15;;;;;;;8.85;2.10;;;;;;;4.49;65.21;100520.12;4438430;32;20085;-79
2021/01/26 00:04:41;;;;;;;6.05;1.92;;;;;;;4.43;65.72;100513.38;4439361;32;20017;-78
2021/01/26 00:07:06;;;;;;;6.85;1.98;;;;;;;4.57;65.10;100513.34;4434964;32;20088;-76
2021/01/26 00:09:32;;;;;;;9.13;1.67;;;;;;;4.35;65.97;100514.59;4436145;32;20041;-79
2021/01/26 00:11:58;;;;;;;7.68;1.75;;;;;;;4.43;66.11;100500.25;4435041;32;20131;-76
2021/01/26 00:14:24;;;;;;;12.60;2.50;;;;;;;4.36;66.28;100516.97;4435896;32;20037;-76
2021/01/26 00:16:50;;;;;;;9.18;2.45;;;;;;;4.42;66.41;100503.44;4437073;32;20066;-75
2021/01/26 00:19:17;;;;;;;11.55;2.03;;;;;;;4.46;66.01;100510.56;4421948;32;20099;-77
2021/01/26 00:21:42;;;;;;;8.38;1.77;;;;;;;4.46;66.40;100510.56;4420791;32;20117;-79
2021/01/26 00:24:08;;;;;;;13.48;2.85;;;;;;;4.35;66.91;100501.44;4433449;32;20045;-76
2021/01/26 00:26:35;;;;;;;7.57;1.80;;;;;;;4.47;66.53;100506.59;4423883;32;20084;-75
2021/01/26 00:29:00;;;;;;;7.45;1.80;;;;;;;4.39;67.03;100513.41;4431147;32;20018;-76
2021/01/26 00:31:26;;;;;;;12.88;3.20;;;;;;;4.28;67.53;100509.81;4427106;32;20480;-75
2021/01/26 00:33:53;;;;;;;5.55;2.37;;;;;;;4.35;67.37;100503.47;4426959;32;20085;-78
2021/01/26 00:36:19;;;;;;;11.77;2.85;;;;;;;4.43;67.57;100500.25;4427049;32;20109;-76
2021/01/26 00:38:45;;;;;;;8.63;2.40;;;;;;;4.44;67.23;100501.00;4428290;32;20064;-77
2021/01/26 00:41:11;;;;;;;8.90;2.12;;;;;;;4.37;67.37;100498.25;4428366;32;20407;-78
2021/01/26 00:43:37;;;;;;;7.75;2.70;;;;;;;4.51;67.30;100498.22;4430242;32;20062;-75
2021/01/26 00:46:03;;;;;;;7.22;2.47;;;;;;;4.55;66.93;100501.78;4425867;32;20113;-78
2021/01/26 00:48:28;;;;;;;6.53;1.90;;;;;;;4.65;67.12;100501.75;4427904;32;20575;-77
2021/01/26 00:50:54;;;;;;;8.95;2.15;;;;;;;4.97;66.05;100496.81;4430027;32;20037;-76
2021/01/26 00:53:20;;;;;;;9.90;2.72;;;;;;;4.80;66.58;100502.47;4429340;32;20025;-80
2021/01/26 00:55:46;;;;;;;15.48;2.70;;;;;;;4.78;66.30;100497.31;4423561;32;20128;-78
2021/01/26 00:58:14;;;;;;;11.25;2.50;;;;;;;4.72;66.82;100500.94;4428639;32;20073;-79
2021/01/26 01:00:40;;;;;;;8.43;2.30;;;;;;;4.77;66.47;100497.72;4429778;32;20018;-79
2021/01/26 01:03:06;;;;;;;9.88;3.22;;;;;;;4.64;66.92;100491.81;4425261;32;20125;-77
2021/01/26 01:05:32;;;;;;;8.15;2.10;;;;;;;4.73;66.92;100505.31;4424932;32;20061;-77
2021/01/26 01:07:59;;;;;;;6.72;2.78;;;;;;;4.75;67.06;100511.28;4428716;32;20041;-77
2021/01/26 01:10:28;;;;;;;7.75;3.08;;;;;;;4.74;67.03;100510.47;4431196;32;20025;-77
2021/01/26 01:12:53;;;;;;;5.93;2.65;;;;;;;4.70;67.12;100509.69;4426008;32;20021;-79
2021/01/26 01:15:20;;;;;;;8.82;2.87;;;;;;;4.70;67.27;100508.91;4428343;32;20509;-78
2021/01/26 01:17:49;;;;;;;6.97;2.28;;;;;;;4.67;67.60;100512.50;4422641;32;20084;-76
2021/01/26 01:20:18;;;;;;;4.37;2.30;;;;;;;4.63;67.62;100508.94;4428841;32;20033;-78
2021/01/26 01:22:44;;;;;;;12.27;3.72;;;;;;;4.58;67.46;100504.56;4427007;32;20061;-77
2021/01/26 01:25:11;;;;;;;8.50;2.83;;;;;;;4.57;67.58;100518.91;4428239;32;20145;-77
2021/01/26 01:27:36;;;;;;;7.32;2.05;;;;;;;4.55;67.80;100524.87;4425927;32;20727;-77
2021/01/26 01:30:05;;;;;;;10.15;2.22;;;;;;;4.43;68.07;100535.66;4425183;32;20052;-77
2021/01/26 01:32:30;;;;;;;8.27;1.90;;;;;;;4.39;68.28;100540.44;4425677;32;20010;-76
2021/01/26 01:34:56;;;;;;;5.43;2.10;;;;;;;4.37;68.36;100535.28;4429065;32;20258;-76
2021/01/26 01:37:21;;;;;;;9.35;2.33;;;;;;;4.33;68.69;100540.06;4426214;32;20051;-77
2021/01/26 01:39:47;;;;;;;11.60;1.80;;;;;;;4.42;68.60;100548.00;4407786;32;20037;-77
2021/01/26 01:42:13;;;;;;;7.80;2.17;;;;;;;4.51;67.92;100545.59;4428597;32;20021;-75
2021/01/26 01:44:39;;;;;;;10.30;2.03;;;;;;;4.54;68.04;100539.22;4423616;32;20089;-75
2021/01/26 01:47:10;;;;;;;10.10;1.70;;;;;;;4.54;67.96;100544.78;4427875;32;20042;-74
2021/01/26 01:49:42;;;;;;;6.68;2.28;;;;;;;4.58;68.04;100545.56;4428265;32;20478;-78
2021/01/26 01:52:13;;;;;;;7.50;2.10;;;;;;;4.67;67.73;100545.94;4424467;32;20030;-78
2021/01/26 01:54:44;;;;;;;4.18;1.83;;;;;;;4.88;66.87;100552.22;4429076;32;20066;-78
2021/01/26 01:57:26;;;;;;;7.97;2.45;;;;;;;4.81;67.01;100562.59;4426935;32;20124;-76
2021/01/26 01:59:56;;;;;;;9.68;2.92;;;;;;;4.75;67.15;100558.66;4428864;32;20430;-76
2021/01/26 02:02:22;;;;;;;9.23;2.20;;;;;;;4.65;67.19;100565.84;4429545;32;20038;-77
2021/01/26 02:04:48;;;;;;;4.28;2.08;;;;;;;4.60;67.62;100569.03;4424189;32;20022;-77
2021/01/26 02:07:14;;;;;;;7.72;3.72;;;;;;;4.51;66.92;100573.47;4426096;32;20056;-80
2021/01/26 02:09:41;;;;;;;9.60;2.72;;;;;;;4.43;67.32;100575.47;4422049;32;20061;-79
2021/01/26 02:12:10;;;;;;;10.13;2.33;;;;;;;4.46;67.83;100571.88;4427975;32;20062;-76
2021/01/26 02:14:41;;;;;;;17.23;2.58;;;;;;;4.43;67.89;100567.09;4424554;32;20060;-76
2021/01/26 02:17:21;;;;;;;5.85;2.15;;;;;;;4.43;67.88;100583.00;4423646;32;20037;-75
2021/01/26 02:23:22;;;;;;;6.70;2.62;;;;;;;4.58;67.95;100595.72;4004291;31;15017743;-77
2021/01/26 02:31:54;;;;;;;5.65;2.10;;;;;;;4.37;69.16;100590.19;4003157;31;15017948;-79
2021/01/26 02:35:00;;;;;;;6.40;2.53;;;;;;;4.37;69.16;100590.19;4458152;32;20136;-77
2021/01/26 02:38:05;;;;;;;9.23;2.20;;;;;;;4.01;69.60;100587.44;4450988;32;20060;-78
2021/01/26 02:40:39;;;;;;;4.37;2.05;;;;;;;3.92;69.65;100567.56;4452038;32;20481;-78
2021/01/26 03:02:36;;;;;;;8.27;2.10;;;;;;;4.32;68.58;100604.53;3988461;32;15025773;-78
2021/01/26 03:05:08;;;;;;;6.65;1.62;;;;;;;4.32;68.58;100604.53;4444125;32;20477;-78
2021/01/26 03:07:39;;;;;;;4.05;1.80;;;;;;;3.96;69.34;100592.63;4444893;32;20013;-79
2021/01/26 03:10:10;;;;;;;5.47;1.30;;;;;;;3.99;69.20;100591.81;4438202;32;20026;-78
2021/01/26 03:12:40;;;;;;;7.47;1.62;;;;;;;3.92;69.79;100591.81;4445101;32;20436;-79
2021/01/26 03:15:14;;;;;;;6.37;2.00;;;;;;;4.01;69.40;100600.56;4443987;32;20121;-78
2021/01/26 03:17:44;;;;;;;9.17;1.80;;;;;;;4.05;69.19;100598.56;4440783;32;20072;-80
2021/01/26 03:22:53;;;;;;;4.03;2.25;;;;;;;4.14;69.18;100601.75;4002962;31;15018133;-79
2021/01/26 03:25:23;;;;;;;4.05;1.70;;;;;;;4.10;68.98;100603.75;4447266;32;20395;-76
2021/01/26 03:27:52;;;;;;;5.68;2.22;;;;;;;4.13;68.99;100605.72;4449160;32;20104;-79
2021/01/26 03:30:23;;;;;;;5.78;2.20;;;;;;;4.18;68.73;100607.31;4457753;32;20041;-76
2021/01/26 03:32:56;;;;;;;7.22;2.28;;;;;;;4.20;68.49;100610.50;4459115;32;20033;-76
2021/01/26 03:35:21;;;;;;;6.55;2.25;;;;;;;4.24;68.18;100598.19;4447008;32;20041;-80
2021/01/26 03:37:53;;;;;;;6.15;2.20;;;;;;;4.19;68.14;100604.13;4440213;32;20041;-78
2021/01/26 03:40:20;;;;;;;9.18;2.00;;;;;;;4.27;67.74;100602.16;4446234;32;20080;-76
2021/01/26 03:42:46;;;;;;;5.12;2.22;;;;;;;4.14;67.68;100593.37;4442555;32;20072;-76
2021/01/26 03:45:12;;;;;;;4.60;2.33;;;;;;;4.17;67.57;100594.59;4446353;32;20425;-77
2021/01/26 03:50:28;;;;;;;7.53;2.08;;;;;;;4.81;66.11;100596.06;3986046;32;15023788;-78
2021/01/26 03:56:02;;;;;;;8.80;1.95;;;;;;;4.94;65.73;100588.84;3990525;32;15023452;-78
2021/01/26 04:01:30;;;;;;;6.78;2.10;;;;;;;4.90;65.94;100590.84;3959416;32;15725547;-77
2021/01/26 04:06:44;;;;;;;9.45;2.00;;;;;;;4.43;66.92;100583.00;4011620;31;15018606;-78
2021/01/26 04:09:13;;;;;;;2.50;1.25;;;;;;;4.37;66.85;100581.84;4470210;32;20083;-75
2021/01/26 04:14:33;;;;;;;3.65;1.27;;;;;;;4.56;66.26;100578.59;3987028;32;15023779;-78
2021/01/26 04:17:22;;;;;;;3.92;1.27;;;;;;;4.47;66.21;100579.03;4441537;32;20064;-77
2021/01/26 04:19:57;;;;;;;6.07;1.25;;;;;;;4.46;66.65;100579.44;4442314;32;20061;-78
2021/01/26 04:22:24;;;;;;;6.95;1.48;;;;;;;4.53;66.17;100585.78;4439228;32;20069;-77
2021/01/26 04:24:50;;;;;;;4.93;1.77;;;;;;;4.47;65.95;100584.59;4434400;32;20029;-78
2021/01/26 04:27:20;;;;;;;6.00;1.30;;;;;;;4.52;66.03;100586.19;4439391;32;20124;-76
2021/01/26 04:29:46;;;;;;;7.68;1.42;;;;;;;4.55;65.89;100585.38;4441196;32;20161;-77
2021/01/26 04:32:12;;;;;;;3.78;1.48;;;;;;;4.43;66.33;100585.81;4436396;32;20160;-77
2021/01/26 04:34:38;;;;;;;4.07;1.50;;;;;;;4.45;66.37;100581.41;4437027;32;20041;-78
2021/01/26 04:37:04;;;;;;;7.28;1.70;;;;;;;4.57;66.00;100589.34;4436783;32;20056;-79
2021/01/26 04:39:30;;;;;;;4.03;1.25;;;;;;;4.59;65.42;100575.81;4435613;32;20060;-77
2021/01/26 04:42:00;;;;;;;6.55;1.42;;;;;;;4.73;65.17;100578.56;4437869;32;20079;-79
2021/01/26 04:44:58;;;;;;;4.93;1.50;;;;;;;4.75;65.10;100578.19;4435856;32;20033;-77
2021/01/26 04:53:13;;;;;;;3.67;1.40;;;;;;;5.20;63.96;100566.00;3988120;32;15024945;-81
2021/01/26 04:58:42;;;;;;;5.13;1.33;;;;;;;4.98;64.15;100570.09;4002678;31;15023283;-78
2021/01/26 05:06:56;;;;;;;3.12;1.30;;;;;;;5.72;62.42;100588.03;3938513;32;16297248;-78
2021/01/26 05:09:28;;;;;;;4.30;1.48;;;;;;;5.72;62.42;100588.03;4431290;32;20371;-78
2021/01/26 05:11:56;;;;;;;3.60;1.30;;;;;;;5.10;63.26;100575.25;4429946;32;20568;-79
2021/01/26 05:14:27;;;;;;;2.62;1.23;;;;;;;5.07;63.32;100590.78;4428444;32;20033;-77
2021/01/26 05:19:40;;;;;;;4.45;1.20;;;;;;;5.53;62.58;100593.34;3986808;32;15025664;-80
2021/01/26 05:24:57;;;;;;;5.65;1.37;;;;;;;5.27;63.00;100610.59;4001855;31;15015835;-80
2021/01/26 05:27:23;;;;;;;6.62;1.55;;;;;;;5.27;63.00;100610.59;4467895;32;20028;-77
2021/01/26 05:29:48;;;;;;;8.68;1.40;;;;;;;4.83;63.94;100600.03;4473899;32;20024;-78
2021/01/26 05:32:14;;;;;;;5.57;1.52;;;;;;;4.79;64.29;100599.25;4467383;32;20400;-78
2021/01/26 05:34:41;;;;;;;4.25;1.87;;;;;;;4.78;64.37;100599.63;4469229;32;20084;-76
2021/01/26 05:37:10;;;;;;;8.25;1.60;;;;;;;4.61;65.35;100600.50;4470673;32;20131;-79
2021/01/26 05:39:56;;;;;;;5.97;1.77;;;;;;;4.67;65.46;100594.13;4454705;32;20045;-79
2021/01/26 05:42:24;;;;;;;6.28;1.50;;;;;;;4.79;64.68;100595.69;4465407;32;20022;-75
2021/01/26 05:44:55;;;;;;;5.95;1.77;;;;;;;4.77;64.82;100593.28;4451326;32;20077;-78
2021/01/26 05:47:32;;;;;;;7.95;2.20;;;;;;;4.80;64.73;100591.69;4465905;32;20024;-77
2021/01/26 05:49:58;;;;;;;8.65;2.05;;;;;;;4.77;65.14;100598.88;4467840;32;20040;-80
2021/01/26 05:55:25;;;;;;;7.60;3.00;;;;;;;5.09;65.47;100607.13;3986026;32;15023594;-77
2021/01/26 05:57:53;;;;;;;10.57;4.07;;;;;;;5.09;65.47;100607.13;4439693;32;20533;-77
2021/01/26 06:06:07;;;;;;;10.17;3.57;;;;;;;4.77;65.72;100589.69;4004092;31;15029747;-79
2021/01/26 06:08:48;;;;;;;5.35;3.00;;;;;;;4.95;65.13;100593.22;4452666;32;20113;-79
2021/01/26 06:11:18;;;;;;;9.57;3.22;;;;;;;4.76;65.85;100596.47;4452716;32;20044;-79
2021/01/26 06:13:44;;;;;;;6.32;2.78;;;;;;;4.99;65.04;100591.22;4454624;32;20041;-77
2021/01/26 06:16:21;;;;;;;6.97;3.30;;;;;;;4.81;65.90;100582.91;4458336;32;20118;-78
2021/01/26 06:19:04;;;;;;;8.77;3.92;;;;;;;4.85;65.85;100586.47;4451794;32;20130;-78
2021/01/26 06:21:45;;;;;;;8.55;2.70;;;;;;;4.91;65.75;100582.06;4451781;32;20086;-77
2021/01/26 06:24:28;;;;;;;13.35;3.45;;;;;;;4.95;65.74;100587.66;4453915;32;20025;-77
2021/01/26 06:32:36;;;;;;;7.10;2.70;;;;;;;5.11;66.41;100588.78;3992594;31;15019441;-79
2021/01/26 06:38:18;;;;;;;7.10;2.62;;;;;;;5.02;66.81;100587.62;3993714;32;15025337;-78
2021/01/26 06:40:57;;;;;;;9.00;3.42;;;;;;;5.02;66.81;100587.62;4444153;32;20059;-79
2021/01/26 07:01:21;;;;;;;7.03;2.28;;;;;;;5.70;64.58;100600.78;3990656;32;15025481;-77
2021/01/26 07:06:54;;;;;;;8.88;2.15;;;;;;;5.70;64.69;100592.41;3986874;32;15026967;-77
2021/01/26 07:18:08;;;;;;;7.97;1.67;;;;;;;5.93;63.88;100607.44;3991295;32;15022899;-78
2021/01/26 07:31:55;;;;;;;7.07;1.77;;;;;;;5.88;64.56;100585.53;3986168;32;15022827;-78
2021/01/26 07:37:06;;;;;;;4.60;1.70;;;;;;;5.86;64.67;100598.34;3988572;32;15024826;-77
2021/01/26 07:39:43;;;;;;;10.35;2.03;;;;;;;5.86;64.67;100598.34;4442131;32;20078;-78
2021/01/26 07:47:52;;;;;;;9.27;3.05;;;;;;;5.71;65.93;100605.97;3986524;32;15024127;-77
2021/01/26 07:52:58;;;;;;;8.82;2.60;;;;;;;5.73;65.64;100600.78;3987847;32;15022690;-78
2021/01/26 07:58:05;;;;;;;15.68;4.40;;;;;;;5.77;66.03;100601.53;3959107;32;15728287;-79
2021/01/26 08:00:36;;;;;;;11.55;2.97;;;;;;;5.77;66.03;100601.53;4441597;32;20025;-81
2021/01/26 08:03:03;;;;;;;7.03;2.40;;;;;;;5.38;67.04;100595.44;4438448;32;20048;-81
2021/01/26 08:08:39;;;;;;;6.43;2.42;;;;;;;5.68;66.86;100608.81;4001586;31;15023516;-77
2021/01/26 08:11:24;;;;;;;9.52;3.65;;;;;;;5.68;66.86;100608.81;4462976;32;20095;-77
2021/01/26 08:19:21;;;;;;;8.38;2.53;;;;;;;5.87;66.46;100614.66;3993802;31;15016841;-77
2021/01/26 08:21:48;;;;;;;5.10;1.85;;;;;;;5.87;66.46;100614.66;4457584;32;20042;-78
2021/01/26 08:27:16;;;;;;;8.65;2.62;;;;;;;5.99;65.95;100636.53;3985395;32;15023670;-78
2021/01/26 08:37:50;;;;;;;7.97;2.40;;;;;;;6.03;65.57;100631.72;3990077;32;15032936;-78
2021/01/26 08:42:54;;;;;;;8.95;3.08;;;;;;;5.71;66.29;100608.00;3987640;32;15023916;-78
2021/01/26 08:48:25;;;;;;;7.85;2.22;;;;;;;6.36;65.07;100579.16;3985618;32;15026165;-78
2021/01/26 08:59:06;;;;;;;7.82;3.85;;;;;;;5.97;65.28;100588.66;3979448;32;15022415;-75
2021/01/26 09:01:42;;;;;;;8.50;3.53;;;;;;;5.85;66.14;100582.78;4429774;32;20111;-74
2021/01/26 09:06:51;;;;;;;8.38;2.90;;;;;;;6.37;65.06;100587.13;3984360;32;15040529;-78
2021/01/26 09:11:58;;;;;;;10.27;3.50;;;;;;;6.03;65.93;100583.44;3990194;32;15032094;-80
2021/01/26 09:28:08;;;;;;;9.30;4.00;;;;;;;6.47;64.48;100591.03;3991494;32;15013454;-83
2021/01/26 09:30:36;;;;;;;9.13;3.87;;;;;;;6.47;64.48;100591.03;4447227;32;20093;-76
2021/01/26 09:36:13;;;;;;;6.80;3.17;;;;;;;6.37;65.19;100556.38;3984073;32;15034255;-77
2021/01/26 09:38:46;;;;;;;9.20;2.87;;;;;;;6.37;65.19;100556.38;4441539;32;20025;-80
2021/01/26 09:43:56;;;;;;;9.52;3.80;;;;;;;6.32;65.43;100549.06;3989668;32;15025535;-81
2021/01/26 09:46:29;;;;;;;9.02;3.20;;;;;;;6.32;65.43;100550.44;4435003;32;20018;-80
2021/01/26 09:49:07;;;;;;;11.35;4.18;;;;;;;5.90;65.98;100548.84;4436054;32;20110;-80
2021/01/26 09:51:39;;;;;;;11.45;6.10;;;;;;;5.96;66.42;100536.78;4435708;32;20062;-79
2021/01/26 09:54:10;;;;;;;12.77;5.20;;;;;;;6.04;66.12;100549.50;4435506;32;20041;-77
2021/01/26 09:56:39;;;;;;;10.43;4.57;;;;;;;6.29;65.10;100537.31;4438983;32;20037;-80
2021/01/26 09:59:08;;;;;;;13.48;3.65;;;;;;;6.36;65.10;100545.59;4441499;32;20707;-80
2021/01/26 10:01:34;;;;;;;5.30;3.45;;;;;;;6.45;64.70;100548.72;4441032;32;20030;-80
2021/01/26 10:04:04;;;;;;;7.93;4.32;;;;;;;6.50;64.97;100559.44;4439907;32;20077;-78
2021/01/26 10:06:31;;;;;;;10.32;3.62;;;;;;;6.53;64.60;100558.63;4439506;32;20037;-81
2021/01/26 10:09:21;;;;;;;9.23;3.60;;;;;;;6.53;64.84;100551.00;4436592;32;20045;-80
2021/01/26 10:11:47;;;;;;;6.60;3.45;;;;;;;6.06;66.47;100526.75;4439094;32;20062;-79
2021/01/26 10:17:12;;;;;;;11.73;3.17;;;;;;;6.51;65.60;100507.91;3989100;32;15068965;-80
2021/01/26 10:19:39;;;;;;;10.48;3.65;;;;;;;6.51;65.60;100507.91;4444463;32;20080;-80
2021/01/26 10:22:18;;;;;;;6.85;3.75;;;;;;;6.08;66.55;100497.19;4447874;32;20177;-78
2021/01/26 10:24:44;;;;;;;11.85;4.75;;;;;;;6.07;67.07;100498.41;4442539;32;20029;-78
2021/01/26 10:27:13;;;;;;;13.55;5.30;;;;;;;6.00;67.10;100498.47;4440605;32;20053;-79
2021/01/26 10:29:42;;;;;;;15.32;6.10;;;;;;;5.97;67.20;100504.87;4445486;32;20084;-77
2021/01/26 10:32:10;;;;;;;13.68;5.82;;;;;;;6.16;66.51;100494.34;4454465;32;20045;-77
2021/01/26 10:34:40;;;;;;;11.43;5.40;;;;;;;5.89;67.96;100497.75;4440906;32;20041;-77
2021/01/26 10:43:10;;;;;;;11.23;4.78;;;;;;;6.71;65.89;100475.31;3987219;32;15029086;-76
2021/01/26 10:48:29;;;;;;;7.78;3.92;;;;;;;7.32;64.07;100486.06;4007585;31;15015609;-77
2021/01/26 10:51:07;;;;;;;12.70;4.22;;;;;;;7.32;64.07;100486.06;4469841;32;20060;-77
2021/01/26 10:53:35;;;;;;;9.80;4.72;;;;;;;7.08;64.12;100478.00;4469743;32;20045;-78
2021/01/26 10:56:01;;;;;;;11.32;4.53;;;;;;;7.12;63.68;100489.97;4459571;32;20341;-77
2021/01/26 10:58:27;;;;;;;9.45;4.90;;;;;;;7.07;63.92;100494.00;4455251;32;20063;-79
2021/01/26 11:00:54;;;;;;;12.37;5.12;;;;;;;7.27;64.17;100497.72;4462720;32;20041;-79
2021/01/26 11:03:19;;;;;;;14.68;5.68;;;;;;;7.26;63.36;100487.75;4464394;32;20476;-79
2021/01/26 11:05:45;;;;;;;10.40;5.20;;;;;;;7.25;63.96;100488.16;4463196;32;20119;-77
2021/01/26 11:08:11;;;;;;;12.50;5.28;;;;;;;7.09;64.37;100482.41;4466889;32;20009;-76
2021/01/26 11:10:37;;;;;;;16.27;6.45;;;;;;;7.03;64.06;100495.28;4468707;32;20069;-78
2021/01/26 11:13:03;;;;;;;11.60;6.32;;;;;;;6.85;64.94;100489.13;4467631;32;20029;-77
2021/01/26 11:15:29;;;;;;;14.55;6.65;;;;;;;6.68;64.71;100481.72;4468450;32;20078;-78
2021/01/26 11:17:55;;;;;;;12.55;6.40;;;;;;;6.83;64.71;100481.16;4470832;32;20072;-78
2021/01/26 11:20:24;;;;;;;12.18;6.82;;;;;;;7.06;64.01;100500.03;4467728;32;20115;-77
2021/01/26 11:22:50;;;;;;;20.90;8.23;;;;;;;6.86;64.32;100510.28;4465161;32;20074;-75
2021/01/26 11:25:17;;;;;;;16.35;7.68;;;;;;;7.03;63.46;100514.84;4463771;32;20063;-79
2021/01/26 11:27:43;;;;;;;16.08;7.60;;;;;;;7.04;63.96;100513.62;4465504;32;20052;-80
2021/01/26 11:30:14;;;;;;;14.70;8.07;;;;;;;7.13;63.92;100513.91;4465952;32;20196;-80
2021/01/26 11:32:41;;;;;;;13.30;7.07;;;;;;;7.31;63.42;100520.06;4467746;32;20044;-81
2021/01/26 11:35:10;;;;;;;18.02;7.47;;;;;;;7.40;62.76;100521.09;4467189;32;20071;-78
2021/01/26 11:37:36;;;;;;;14.50;7.65;;;;;;;7.23;63.40;100510.97;4464789;32;20104;-78
2021/01/26 11:40:05;;;;;;;15.45;8.15;;;;;;;7.54;63.06;100511.69;4452203;32;20135;-77
2021/01/26 11:42:30;;;;;;;19.02;8.32;;;;;;;7.67;62.70;100505.09;4467132;32;20029;-80
2021/01/26 11:44:56;;;;;;;22.98;8.90;;;;;;;7.64;62.91;100499.56;4466589;32;20154;-83
2021/01/26 11:47:21;;;;;;;14.43;7.47;;;;;;;7.71;62.22;100491.81;4454847;32;20422;-81
2021/01/26 11:49:47;;;;;;;18.85;9.35;;;;;;;7.63;62.35;100495.97;4468910;32;20057;-79
2021/01/26 11:52:13;;;;;;;18.85;8.45;;;;;;;7.81;62.78;100481.66;4467329;32;20022;-81
2021/01/26 11:54:40;;;;;;;20.77;8.30;;;;;;;7.91;62.35;100473.06;4469986;32;20083;-81
2021/01/26 11:57:07;;;;;;;19.67;8.63;;;;;;;7.88;61.95;100473.94;4451149;32;20049;-79
2021/01/26 11:59:34;;;;;;;18.55;9.57;;;;;;;7.74;62.56;100460.16;4455692;32;20059;-83
2021/01/26 12:02:01;;;;;;;21.12;10.20;;;;;;;7.94;62.83;100477.03;4445902;32;20076;-77
2021/01/26 12:04:26;;;;;;;17.23;7.40;;;;;;;8.04;62.96;100470.47;4456115;32;20033;-78
2021/01/26 12:06:52;;;;;;;18.15;7.72;;;;;;;8.16;62.61;100467.81;4459619;32;20110;-77
2021/01/26 12:09:18;;;;;;;16.73;8.43;;;;;;;8.25;62.06;100475.69;4460641;32;20092;-75
2021/01/26 12:11:44;;;;;;;21.83;9.25;;;;;;;8.29;62.13;100465.22;4457700;32;20332;-77
2021/01/26 12:14:10;;;;;;;22.90;9.45;;;;;;;8.19;62.81;100466.16;4441008;32;20378;-77
2021/01/26 12:16:36;;;;;;;19.25;8.63;;;;;;;8.10;62.81;100463.91;4442827;32;20053;-77
2021/01/26 12:19:02;;;;;;;13.98;7.00;;;;;;;8.10;62.75;100451.91;4460639;32;20132;-80
2021/01/26 12:21:29;;;;;;;13.45;6.03;;;;;;;8.17;62.45;100451.78;4455007;32;20040;-77
2021/01/26 12:23:54;;;;;;;17.25;6.47;;;;;;;8.04;62.41;100443.22;4453493;32;20084;-76
2021/01/26 12:26:21;;;;;;;14.50;6.65;;;;;;;7.95;63.64;100450.59;4454661;32;20041;-77
2021/01/26 12:28:46;;;;;;;13.70;7.07;;;;;;;7.89;63.58;100444.69;4454666;32;20051;-75
2021/01/26 12:31:13;;;;;;;12.63;6.35;;;;;;;7.65;64.22;100442.31;4458081;32;20068;-78
2021/01/26 12:33:39;;;;;;;10.80;5.65;;;;;;;7.71;65.34;100438.59;4462330;32;20059;-75
2021/01/26 12:36:05;;;;;;;15.73;5.47;;;;;;;7.64;64.35;100444.31;4455470;32;20080;-78
2021/01/26 12:38:31;;;;;;;12.90;5.53;;;;;;;7.57;65.92;100443.66;4458672;32;20071;-76
2021/01/26 12:40:58;;;;;;;14.75;5.78;;;;;;;7.47;66.10;100447.44;4456238;32;20187;-76
2021/01/26 12:43:24;;;;;;;15.77;6.10;;;;;;;7.27;67.02;100444.53;4457419;32;20029;-76
2021/01/26 12:45:49;;;;;;;14.65;6.03;;;;;;;7.12;67.17;100439.59;4459882;32;20056;-76
2021/01/26 12:48:16;;;;;;;13.57;7.15;;;;;;;7.24;68.07;100431.38;4441671;32;20045;-77
2021/01/26 12:50:43;;;;;;;14.85;7.32;;;;;;;7.00;69.16;100437.37;4455720;32;20488;-78
2021/01/26 12:53:09;;;;;;;16.58;7.65;;;;;;;7.15;69.87;100433.91;4457988;32;20633;-79
2021/01/26 12:55:35;;;;;;;15.63;7.32;;;;;;;6.98;69.42;100442.59;4453797;32;20084;-76
2021/01/26 12:58:01;;;;;;;13.23;6.87;;;;;;;6.83;70.29;100442.00;4458897;32;20049;-77
2021/01/26 13:00:27;;;;;;;13.50;7.18;;;;;;;6.92;69.53;100422.69;4440513;32;20064;-78
2021/01/26 13:02:54;;;;;;;16.83;7.37;;;;;;;6.77;70.17;100412.91;4458184;32;20110;-79
2021/01/26 13:05:21;;;;;;;16.30;8.18;;;;;;;6.78;70.13;100422.88;4454482;32;20041;-76
2021/01/26 13:07:46;;;;;;;17.90;7.97;;;;;;;6.76;71.07;100414.13;4448974;32;20033;-80
2021/01/26 13:10:14;;;;;;;15.02;7.35;;;;;;;6.73;71.15;100409.38;4456412;32;20513;-78
2021/01/26 13:12:40;;;;;;;15.27;8.45;;;;;;;6.71;70.46;100408.19;4455852;32;20080;-77
2021/01/26 13:15:08;;;;;;;18.55;8.77;;;;;;;6.65;70.85;100407.88;4449499;32;20558;-80
2021/01/26 13:17:33;;;;;;;19.20;9.45;;;;;;;6.58;71.42;100402.38;4456827;32;20089;-81
2021/01/26 13:20:00;;;;;;;19.90;9.68;;;;;;;6.43;72.38;100381.44;4458383;32;20041;-78
2021/01/26 13:22:26;;;;;;;22.83;10.25;;;;;;;6.51;73.48;100396.91;4454846;32;20045;-77
2021/01/26 13:24:52;;;;;;;23.58;10.25;;;;;;;6.45;73.25;100392.19;4455229;32;20455;-78
2021/01/26 13:27:18;;;;;;;22.73;10.20;;;;;;;6.39;73.70;100391.88;4454623;32;20045;-77
2021/01/26 13:29:44;;;;;;;21.95;10.05;;;;;;;6.40;73.41;100393.44;4457213;32;20449;-77
2021/01/26 13:32:12;;;;;;;30.65;10.82;;;;;;;5.78;74.99;100385.38;4453978;32;20033;-77
2021/01/26 13:34:39;;;;;;;24.10;10.65;;;;;;;5.86;75.83;100380.53;4452394;32;20093;-80
2021/01/26 13:37:06;;;;;;;23.60;11.30;;;;;;;5.71;76.26;100370.69;4451306;32;20084;-79
2021/01/26 13:39:32;;;;;;;24.95;11.85;;;;;;;5.72;77.12;100353.53;4451968;32;20034;-77
2021/01/26 13:41:58;;;;;;;31.20;13.23;;;;;;;5.49;78.23;100364.50;4453281;32;20108;-83
2021/01/26 13:44:26;;;;;;;27.15;12.82;;;;;;;5.51;79.11;100364.09;4439681;32;20037;-75
2021/01/26 13:46:53;;;;;;;33.78;14.13;;;;;;;5.23;79.68;100348.41;4453199;32;20041;-75
2021/01/26 13:49:19;;;;;;;28.35;13.18;;;;;;;5.28;79.41;100342.37;4452706;32;20084;-79
2021/01/26 13:51:45;;;;;;;31.67;14.15;;;;;;;5.19;79.98;100332.91;4453969;32;20091;-77
2021/01/26 13:54:11;;;;;;;29.05;14.23;;;;;;;5.45;80.37;100316.31;4453698;32;20067;-77
2021/01/26 13:56:36;;;;;;;44.90;14.30;;;;;;;5.52;80.24;100307.87;4454061;32;20135;-78
2021/01/26 13:59:03;;;;;;;30.05;12.70;;;;;;;5.54;80.66;100318.63;4454213;32;20049;-78
2021/01/26 14:01:29;;;;;;;28.00;11.73;;;;;;;5.71;80.51;100320.44;4456371;32;20033;-77
2021/01/26 14:03:55;;;;;;;19.40;9.13;;;;;;;5.79;79.68;100314.34;4456694;32;20123;-76
2021/01/26 14:06:21;;;;;;;26.87;9.93;;;;;;;5.91;78.68;100315.81;4456431;32;20177;-78
2021/01/26 14:08:47;;;;;;;15.35;9.15;;;;;;;5.83;78.78;100308.75;4460666;32;20481;-77
2021/01/26 14:11:12;;;;;;;20.50;8.80;;;;;;;5.67;80.28;100300.12;4455863;32;20066;-77
2021/01/26 14:13:39;;;;;;;30.90;10.82;;;;;;;5.65;80.18;100299.75;4457786;32;20403;-76
2021/01/26 14:16:05;;;;;;;25.55;10.95;;;;;;;5.87;80.29;100301.91;4454935;32;20149;-76
2021/01/26 14:18:30;;;;;;;32.38;13.50;;;;;;;6.08;80.70;100303.66;4458806;32;20089;-76
2021/01/26 14:20:56;;;;;;;30.85;14.27;;;;;;;6.25;80.87;100290.63;4456455;32;20089;-79
2021/01/26 14:23:22;;;;;;;28.87;13.77;;;;;;;6.32;80.32;100288.53;4445920;32;20036;-76
2021/01/26 14:25:48;;;;;;;34.40;14.18;;;;;;;6.24;78.04;100289.88;4456441;32;20041;-81
2021/01/26 14:28:14;;;;;;;21.45;10.80;;;;;;;6.36;78.24;100296.88;4453163;32;20038;-78
2021/01/26 14:30:39;;;;;;;24.17;11.98;;;;;;;5.98;77.07;100290.59;4450591;32;20036;-80
2021/01/26 14:33:05;;;;;;;22.55;11.82;;;;;;;6.06;77.92;100287.31;4457629;32;20132;-78
2021/01/26 14:35:32;;;;;;;24.05;11.93;;;;;;;5.71;79.38;100281.34;4455344;32;20042;-76
2021/01/26 14:37:59;;;;;;;20.33;11.07;;;;;;;5.66;78.66;100285.38;4453656;32;20044;-78
2021/01/26 14:40:25;;;;;;;20.25;11.27;;;;;;;5.71;79.27;100276.53;4452552;32;20076;-77
2021/01/26 14:42:51;;;;;;;20.77;11.50;;;;;;;5.77;79.69;100268.53;4439387;32;20390;-78
2021/01/26 14:45:18;;;;;;;24.83;11.07;;;;;;;5.60;79.48;100259.16;4454276;32;20045;-76
2021/01/26 14:47:44;;;;;;;22.52;11.68;;;;;;;5.71;80.35;100256.22;4454212;32;20492;-75
2021/01/26 14:50:13;;;;;;;26.05;12.13;;;;;;;5.44;80.77;100249.75;4458532;32;20060;-79
2021/01/26 14:52:39;;;;;;;22.80;11.57;;;;;;;5.60;81.42;100245.19;4453690;32;20122;-77
2021/01/26 14:55:06;;;;;;;21.67;10.98;;;;;;;5.62;81.38;100241.97;4458031;32;20072;-77
2021/01/26 14:57:31;;;;;;;16.73;9.63;;;;;;;5.62;80.49;100228.78;4450661;32;20136;-76
2021/01/26 14:59:57;;;;;;;20.25;10.05;;;;;;;5.44;80.75;100231.03;4454305;32;20543;-76